• Join FlightAware (Why Join?)
  • Login
  • US Flag 
02:07PM EDT


 

Airport Tracker/Info


-or-


 

Live Flight TrackerFlight Track Log ✈ AVN11 ✈ 06-Oct-2013 ✈ YSSY / SYD - NVVV / VLI

Flight Track Log - Related Links

Times and Time Zones

All times are in EDT time to prevent confusion due to time zone crossing. See the AVN11 flight status page for this flight to view local times or setup timezone preferences in your user account.

Time Position Orientation Groundspeed Altitude Reporting Facility
EDT Latitude Longitude Course Direction KTS MPH feet Rate Location/Type
09:21PM -33.9710 151.1915 191° South 194 223  Level FlightAware ADS-B (YRAY)
09:25PM -33.9630 151.1918 348° North 120 138 60 Level FlightAware ADS-B (YRAY)
09:25PM -33.9489 151.1882 348° North 166 191 400 2,220 Climbing FlightAware ADS-B (YRAY)
09:26PM -33.9336 151.1867 355° North 164 189 1,500 3,000 Climbing FlightAware ADS-B (YRAY)
09:26PM -33.9296 151.1887 23° Northeast 172 198 1,700 1,800 Climbing FlightAware ADS-B
09:26PM -33.9267 151.1914 38° Northeast 170 196 1,800 1,320 Climbing FlightAware ADS-B (YRAY)
09:26PM -33.9243 151.1950 50° Northeast 181 208 1,900 1,200 Climbing FlightAware ADS-B
09:26PM -33.9224 151.1999 66° East 183 211 2,000 1,800 Climbing FlightAware ADS-B (YRAY)
09:26PM -33.9218 151.2051 81° East 183 211 2,200 1,800 Climbing FlightAware ADS-B
09:26PM -33.9221 151.2101 95° East 188 216 2,300 1,560 Climbing FlightAware ADS-B (YRAY)
09:26PM -33.9255 151.2207 111° Southeast 200 230 2,600 1,500 Climbing FlightAware ADS-B (YRAY)
09:26PM -33.9296 151.2310 116° Southeast 214 246 2,800 900 Climbing FlightAware ADS-B (YRAY)
09:27PM -33.9327 151.2381 117° Southeast 226 260 2,900 780 Climbing FlightAware ADS-B
09:27PM -33.9360 151.2477 113° Southeast 239 275 3,000 1,080 Climbing FlightAware ADS-B
09:27PM -33.9375 151.2554 103° East 247 284 3,100 900 Climbing FlightAware ADS-B (YRAY)
09:27PM -33.9380 151.2662 94° East 258 297 3,200 1,140 Climbing FlightAware ADS-B
09:27PM -33.9375 151.2937 89° East 287 330 3,600 1,140 Climbing FlightAware ADS-B
09:28PM -33.9361 151.3320 88° East 320 368 4,000 2,100 Climbing FlightAware ADS-B
09:28PM -33.9348 151.3713 88° East 329 379 5,200 2,460 Climbing FlightAware ADS-B
09:28PM -33.9338 151.3992 88° East 341 392 5,600 1,500 Climbing FlightAware ADS-B
09:28PM -33.9327 151.4311 88° East 360 414 6,100 1,620 Climbing FlightAware ADS-B
09:29PM -33.9321 151.4449 87° East 364 419 6,700 2,280 Climbing FlightAware ADS-B
09:29PM -33.9295 151.5093 87° East 382 440 7,600 3,000 Climbing FlightAware ADS-B
09:29PM -33.9276 151.5565 87° East 384 442 8,400 2,580 Climbing FlightAware ADS-B
09:30PM -33.9271 151.5691 87° East 384 442 9,500 2,160 Climbing FlightAware ADS-B
09:30PM -33.9271 151.5691 87° East 406 467 10,600 2,220 Climbing FlightAware ADS-B
09:31PM -33.9182 151.7932 87° East 422 486 12,400 2,520 Climbing FlightAware ADS-B
09:32PM -33.9142 151.8868 87° East 427 491 14,200 2,460 Climbing FlightAware ADS-B
09:33PM -33.9102 151.9829 87° East 434 499 15,800 1,980 Climbing FlightAware ADS-B
09:34PM -33.9070 152.1470 89° East 452 520 17,900 1,800 Climbing FlightAware
09:34PM -33.8990 152.2610 85° East 464 534 19,300 1,680 Climbing FlightAware
09:35PM -33.8880 152.2850 61° Northeast 462 532 19,500 1,500 Climbing FlightAware
09:35PM -33.8650 152.3140 46° Northeast 459 528 20,000 1,800 Climbing FlightAware
09:35PM -33.8120 152.3820 47° Northeast 466 536 21,100 1,740 Climbing FlightAware
09:36PM -33.7570 152.4520 47° Northeast 471 542 22,100 1,320 Climbing FlightAware
09:37PM -33.7060 152.5160 46° Northeast 484 557 22,700 1,140 Climbing FlightAware
09:37PM -33.6460 152.5900 46° Northeast 492 566 23,500 1,320 Climbing FlightAware
09:38PM -33.5930 152.6540 45° Northeast 498 573 24,300 1,260 Climbing FlightAware
09:38PM -33.5370 152.7230 46° Northeast 502 578 25,000 1,140 Climbing FlightAware
09:39PM -33.4770 152.7960 45° Northeast 511 588 25,700 1,080 Climbing FlightAware
09:40PM -33.4180 152.8680 46° Northeast 518 596 26,300 900 Climbing FlightAware
09:40PM -33.3610 152.9370 45° Northeast 524 603 26,800 1,020 Climbing FlightAware
09:41PM -33.3040 153.0070 46° Northeast 527 606 27,500 1,320 Climbing FlightAware
09:41PM -33.2320 153.0950 46° Northeast 524 603 28,500 1,260 Climbing FlightAware
09:42PM -33.1630 153.1780 45° Northeast 525 604 29,300 1,080 Climbing FlightAware
09:43PM -33.1130 153.2390 46° Northeast 526 605 29,800 1,080 Climbing FlightAware
09:43PM -33.0510 153.3130 45° Northeast 528 608 30,500 1,080 Climbing FlightAware
09:44PM -32.9920 153.3840 45° Northeast 530 610 31,100 780 Climbing FlightAware
09:44PM -32.9320 153.4550 45° Northeast 535 616 31,500 660 Climbing FlightAware
09:45PM -32.8690 153.5300 45° Northeast 542 624 31,900 600 Climbing FlightAware
09:45PM -32.8160 153.5940 45° Northeast 547 629 32,200 780 Climbing FlightAware
09:46PM -32.7360 153.6890 45° Northeast 550 633 32,900 900 Climbing FlightAware
09:47PM -32.6930 153.7410 46° Northeast 548 631 33,300 960 Climbing FlightAware
09:47PM -32.6220 153.8260 45° Northeast 545 627 34,000 1,080 Climbing FlightAware
09:48PM -32.5570 153.9020 45° Northeast 543 625 34,600 840 Climbing FlightAware
09:48PM -32.4940 153.9760 45° Northeast 541 623 35,000 300 Climbing FlightAware
09:49PM -32.4320 154.0500 45° Northeast 542 624 35,000  Level FlightAware
09:50PM -32.3710 154.1220 45° Northeast 542 624 35,000  Level FlightAware
09:50PM -32.3110 154.1930 45° Northeast 540 621 35,000  Level FlightAware
09:51PM -32.2460 154.2690 45° Northeast 540 621 35,000  Level FlightAware
09:51PM -32.1840 154.3410 45° Northeast 538 619 35,000  Level FlightAware
09:52PM -32.1170 154.4180 44° Northeast 539 620 35,000  Level FlightAware
09:53PM -32.0500 154.4980 44° Northeast 538 619 35,000 -180 Level FlightAware
09:53PM -32.0359 154.5149 44° Northeast 538 619 34,900  Descending Aus ATC (RADAR)
09:54PM -31.9550 154.6080 45° Northeast 538 619 35,000  Climbing FlightAware
09:54PM -31.8851 154.6892 45° Northeast 538 619 34,900  Descending Aus ATC (RADAR)
09:54PM -31.8830 154.6920 45° Northeast 540 621 35,000 120 Climbing FlightAware
09:55PM -31.8260 154.7570 44° Northeast 540 621 35,000 -120 Level FlightAware
09:55PM -31.7605 154.8331 44° Northeast 539 620 34,900  Descending Aus ATC (RADAR)
09:55PM -31.7580 154.8350 44° Northeast 540 621 35,000 120 Climbing FlightAware
09:56PM -31.7030 154.8970 44° Northeast 540 621 35,000 -120 Level FlightAware
09:57PM -31.6166 154.9985 44° Northeast 524 603 34,900  Descending Aus ATC (RADAR)
09:57PM -31.6480 154.9590 44° Northeast 540 621 35,000 120 Climbing FlightAware
09:57PM -31.5910 155.0230 44° Northeast 540 621 35,000 -120 Level FlightAware
09:58PM -31.4629 155.1743 44° Northeast 528 608 34,900 -120 Descending Aus ATC (RADAR)
09:58PM -31.4287 155.2137 45° Northeast 545 627 34,900  Level Aus ATC (RADAR)
09:59PM -31.3657 155.2854 44° Northeast 544 626 34,900  Level Aus ATC (RADAR)
10:00PM -31.2669 155.3975 44° Northeast 541 623 34,900  Level Aus ATC (RADAR)
10:00PM -31.2036 155.4691 44° Northeast 543 625 34,900  Level Aus ATC (RADAR)
10:02PM -31.0557 155.6351 44° Northeast 530 610 34,900  Level Aus ATC (RADAR)
10:04PM -30.8062 155.9199 44° Northeast 544 626 34,900  Level Aus ATC (RADAR)
10:04PM -30.7683 155.9662 46° Northeast 536 617 35,000  Climbing Aus ATC (RADAR)
10:09PM -30.3490 156.5236 49° Northeast 543 625 35,000  Level Aus ATC (RADAR)
10:10PM -30.1811 156.7429 49° Northeast 545 627 35,000  Level Aus ATC (RADAR)
10:12PM -30.0283 156.9408 48° Northeast 549 632 35,000  Level Aus ATC (RADAR)
10:12PM -30.0027 156.9735 48° Northeast 550 633 35,000  Level Aus ATC (RADAR)
10:13PM -29.8592 157.1586 48° Northeast 544 626 35,000  Level Aus ATC (RADAR)
10:14PM -29.7611 157.2868 49° Northeast 535 616 35,000  Level Aus ATC (RADAR)
10:15PM -29.7110 157.3507 48° Northeast 534 615 35,000  Level Aus ATC (RADAR)
10:15PM -29.6755 157.3945 47° Northeast 539 620 35,000  Level Aus ATC (RADAR)
10:16PM -29.6153 157.4701 48° Northeast 543 625 35,000  Level Aus ATC (RADAR)
10:17PM -29.5325 157.5771 48° Northeast 539 620 35,000  Level Aus ATC (RADAR)
10:17PM -29.4735 157.6521 48° Northeast 538 619 35,000  Level Aus ATC (RADAR)
10:18PM -29.3823 157.7687 48° Northeast 534 615 35,000  Level Aus ATC (RADAR)
10:18PM -29.3567 157.8006 47° Northeast 536 617 35,000  Level Aus ATC (RADAR)
10:19PM -29.2656 157.9157 48° Northeast 534 615 35,000  Level Aus ATC (RADAR)
10:22PM -28.9508 158.3108 48° Northeast 35,000  Level Aus ATC (Calculated)
10:24PM -28.7337 158.5811 47° Northeast 35,000  Level Aus ATC (Calculated)
10:25PM -28.7736 158.5316 48° Northeast  Level FlightAware Approximate
10:26PM -28.6354 158.7029 47° Northeast  Level FlightAware Approximate
10:27PM -28.5473 158.8118 47° Northeast  Level FlightAware Approximate
10:28PM -28.4591 158.9205 47° Northeast  Level FlightAware Approximate
10:29PM -28.3708 159.0290 47° Northeast  Level FlightAware Approximate
10:29PM -28.2145 159.2204 47° Northeast 37,000  Level Aus ATC (Calculated)
10:30PM -28.2824 159.1374 47° Northeast  Level FlightAware Approximate
10:31PM -28.3146 159.0977 227° Southwest  Level FlightAware Approximate
10:32PM -28.2263 159.2060 47° Northeast  Level FlightAware Approximate
10:32PM -27.9656 159.5235 47° Northeast 37,000  Level Aus ATC (Calculated)
10:34PM -28.0808 159.3834 227° Southwest  Level FlightAware Approximate
10:35PM -27.9816 159.4786 47° Northeast  Level Estimated
10:36PM -27.8932 159.5865 47° Northeast  Level FlightAware Approximate
10:37PM -27.8047 159.6943 47° Northeast  Level FlightAware Approximate
10:37PM -27.5113 160.0709 47° Northeast 37,000  Level Aus ATC (Calculated)
10:37PM -27.5113 160.0709 47° Northeast 37,000 -60 Level Aus ATC (Calculated)
10:38PM -27.3941 160.2111 47° Northeast 37,000 -60 Level Aus ATC (Calculated)
10:39PM -27.3558 160.2568 47° Northeast  Level FlightAware Approximate
10:39PM -27.2821 160.3444 47° Northeast 37,000  Level Aus ATC (Calculated)
10:41PM -27.1562 160.4940 47° Northeast  Level FlightAware Approximate
10:41PM -27.1041 160.5557 46° Northeast 37,000  Level Aus ATC (Calculated)
10:42PM -26.9726 160.7111 46° Northeast 37,000 -60 Level Aus ATC (Calculated)
10:43PM -26.9479 160.7402 46° Northeast  Level FlightAware Approximate
10:43PM -26.9109 160.7838 46° Northeast 37,000  Level Aus ATC (Calculated)
10:45PM -26.7604 160.9606 46° Northeast  Level FlightAware Approximate
10:45PM -26.7313 160.9947 46° Northeast 37,000  Level Aus ATC (Calculated)
10:46PM -26.6700 161.0664 46° Northeast  Level FlightAware Approximate
10:47PM -26.5761 161.1762 46° Northeast  Level FlightAware Approximate
10:47PM -26.5683 161.1852 46° Northeast 37,000  Level Aus ATC (Calculated)
10:49PM -26.3887 161.3943 46° Northeast  Level FlightAware Approximate
10:50PM -26.2979 161.4994 46° Northeast  Level FlightAware Approximate
10:51PM -26.2071 161.6044 46° Northeast  Level FlightAware Approximate
10:52PM -26.1163 161.7093 46° Northeast  Level FlightAware Approximate
10:53PM -26.0253 161.8140 46° Northeast  Level FlightAware Approximate
10:54PM -25.9343 161.9185 46° Northeast  Level FlightAware Approximate
10:55PM -25.8432 162.0228 46° Northeast  Level FlightAware Approximate
10:56PM -25.7521 162.1270 46° Northeast  Level FlightAware Approximate
10:57PM -25.6608 162.2311 46° Northeast  Level FlightAware Approximate
10:57PM -25.5285 162.3816 46° Northeast 37,000  Level Aus ATC (Calculated)
10:58PM -25.4370 162.4852 46° Northeast  Level FlightAware Approximate
10:59PM -25.3456 162.5887 46° Northeast  Level FlightAware Approximate
11:00PM -25.2540 162.6920 46° Northeast  Level FlightAware Approximate
11:01PM -25.1624 162.7952 46° Northeast  Level FlightAware Approximate
11:02PM -25.0707 162.8982 46° Northeast  Level FlightAware Approximate
11:03PM -24.9789 163.0011 45° Northeast  Level FlightAware Approximate
11:04PM -25.0706 162.8982 225° Southwest  Level FlightAware Approximate
11:05PM -24.9789 163.0011 45° Northeast  Level FlightAware Approximate
11:06PM -25.0706 162.8982 225° Southwest  Level FlightAware Approximate
11:07PM -24.9789 163.0011 45° Northeast  Level FlightAware Approximate
11:08PM -25.0706 162.8982 225° Southwest  Level FlightAware Approximate
11:09PM -24.9789 163.0011 45° Northeast  Level FlightAware Approximate
11:10PM -25.0706 162.8982 225° Southwest  Level FlightAware Approximate
11:11PM -24.9789 163.0011 45° Northeast  Level FlightAware Approximate
11:12PM -24.9720 163.0088 45° Northeast  Level FlightAware Approximate
11:13PM -24.8800 163.1115 45° Northeast  Level FlightAware Approximate
11:14PM -24.7880 163.2139 45° Northeast  Level FlightAware Approximate
11:15PM -24.6959 163.3162 45° Northeast  Level FlightAware Approximate
11:16PM -24.6038 163.4184 45° Northeast  Level FlightAware Approximate
11:17PM -24.5116 163.5204 45° Northeast  Level FlightAware Approximate
11:18PM -24.4193 163.6223 45° Northeast  Level FlightAware Approximate
11:19PM -24.3270 163.7240 45° Northeast  Level FlightAware Approximate
11:20PM -24.2346 163.8256 45° Northeast  Level FlightAware Approximate
11:21PM -24.1421 163.9270 45° Northeast  Level FlightAware Approximate
11:22PM -24.0495 164.0282 45° Northeast  Level FlightAware Approximate
11:23PM -23.9569 164.1294 45° Northeast  Level FlightAware Approximate
11:24PM -23.8642 164.2304 45° Northeast  Level FlightAware Approximate
11:25PM -23.7715 164.3312 45° Northeast  Level FlightAware Approximate
11:26PM -23.6787 164.4319 45° Northeast  Level FlightAware Approximate
11:27PM -23.5858 164.5324 45° Northeast  Level FlightAware Approximate
11:28PM -23.4929 164.6328 45° Northeast  Level FlightAware Approximate
11:29PM -23.3999 164.7331 45° Northeast  Level FlightAware Approximate
11:30PM -23.3068 164.8332 45° Northeast  Level FlightAware Approximate
11:30PM -22.1500 166.0610 45° Northeast 514 592 35,000  Level FlightAware
11:30PM -22.0850 166.1280 44° Northeast 515 593 35,000  Level FlightAware
11:31PM -22.0300 166.1840 43° Northeast 510 587 35,000  Level FlightAware
11:31PM -21.9600 166.2330 33° Northeast 485 558 35,000  Level FlightAware
11:32PM -21.8920 166.2660 24° Northeast 478 550 35,000  Level FlightAware
11:33PM -21.8280 166.2970 24° Northeast 477 549 35,000  Level FlightAware
11:33PM -21.7550 166.3320 24° Northeast 479 551 35,000  Level FlightAware
11:34PM -21.6830 166.3660 24° Northeast 477 549 35,000  Level FlightAware
11:34PM -21.6050 166.4040 24° Northeast 475 547 35,000  Level FlightAware
11:35PM -21.5360 166.4360 23° Northeast 476 548 35,000  Level FlightAware
11:35PM -21.4680 166.4690 24° Northeast 477 549 35,000  Level FlightAware
11:36PM -21.4040 166.4990 24° Northeast 477 549 35,000  Level FlightAware
11:37PM -21.3240 166.5370 24° Northeast 478 550 35,000  Level FlightAware
11:37PM -21.2580 166.5690 24° Northeast 479 551 35,000  Level FlightAware
11:38PM -21.1890 166.6010 23° Northeast 480 552 35,000  Level FlightAware
11:38PM -21.1150 166.6360 24° Northeast 482 555 35,000  Level FlightAware
11:39PM -21.0360 166.6730 24° Northeast 485 558 35,000  Level FlightAware
11:40PM -20.9710 166.7040 24° Northeast 485 558 35,000  Level FlightAware
11:40PM -20.9070 166.7350 24° Northeast 485 558 35,000  Level FlightAware
11:41PM -20.8440 166.7650 24° Northeast 485 558 35,000  Level FlightAware
11:41PM -20.7810 166.7950 24° Northeast 485 558 35,000  Level FlightAware
11:42PM -20.6700 166.8470 24° Northeast 480 552 35,000  Level FlightAware
11:43PM -20.5920 166.8840 24° Northeast 479 551 35,000  Level FlightAware
11:43PM -20.5180 166.9180 23° Northeast 479 551 35,000  Level FlightAware
11:44PM -20.4540 166.9470 23° Northeast 479 551 35,000  Level FlightAware
11:45PM -20.3910 166.9750 23° Northeast 479 551 35,000  Level FlightAware
11:45PM -20.3270 167.0040 23° Northeast 479 551 35,000  Level FlightAware
11:46PM -20.2650 167.0320 23° Northeast 479 551 35,000  Level FlightAware
11:46PM -20.2020 167.0610 23° Northeast 479 551 35,000  Level FlightAware
11:47PM -20.1400 167.0890 23° Northeast 479 551 35,000  Level FlightAware
11:48PM -20.0770 167.1170 23° Northeast 479 551 35,000  Level FlightAware
11:48PM -20.0150 167.1450 23° Northeast 479 551 35,000  Level FlightAware
11:49PM -19.9530 167.1730 23° Northeast 479 551 35,000  Level FlightAware
11:49PM -19.8900 167.2020 23° Northeast 479 551 35,000  Level FlightAware
11:50PM -19.8280 167.2300 23° Northeast 479 551 35,000  Level FlightAware
11:51PM -19.7650 167.2580 23° Northeast 479 551 35,000  Level FlightAware
11:51PM -19.7030 167.2860 23° Northeast 479 551 35,000  Level FlightAware
11:52PM -19.6400 167.3140 23° Northeast 479 551 35,000  Level FlightAware
11:52PM -19.5760 167.3430 23° Northeast 479 551 35,000  Level FlightAware
11:55PM -19.3277 167.4738 24° Northeast  Level FlightAware Approximate
11:56PM -19.2079 167.5295 24° Northeast  Level FlightAware Approximate
11:57PM -19.0882 167.5852 24° Northeast  Level FlightAware Approximate
11:58PM -18.9684 167.6408 24° Northeast  Level FlightAware Approximate
11:59PM -18.8486 167.6964 24° Northeast  Level FlightAware Approximate
12:00AM -18.7288 167.7518 24° Northeast  Level FlightAware Approximate
12:01AM -18.6089 167.8072 24° Northeast  Level FlightAware Approximate
12:02AM -18.4891 167.8626 24° Northeast  Level FlightAware Approximate
12:03AM -18.3694 167.9180 24° Northeast  Level FlightAware Approximate
12:04AM -18.2496 167.9734 24° Northeast  Level FlightAware Approximate
12:05AM -18.1298 168.0288 24° Northeast  Level FlightAware Approximate
12:06AM -18.0100 168.0840 24° Northeast  Level FlightAware Approximate
12:07AM -17.8902 168.1392 24° Northeast  Level FlightAware Approximate
12:08AM -17.7703 168.1943 24° Northeast  Level FlightAware Approximate
12:09AM -17.6679 168.2558 117° Southeast  Level FlightAware Approximate
12:10AM -17.6991 168.3198 117° Southeast  Level FlightAware Approximate
12:11AM -17.6993 168.3198 117° Southeast  Level Estimated
12:12AM -17.6991 168.3198 117° Southeast  Level FlightAware Approximate
12:13AM -17.6993 168.3198 117° Southeast  Level Estimated
12:14AM -17.6991 168.3198 117° Southeast  Level FlightAware Approximate
12:15AM -17.6993 168.3198 117° Southeast  Level Estimated
12:16AM -17.6991 168.3198 117° Southeast  Level FlightAware Approximate
12:17AM -17.6993 168.3198 117° Southeast  Level Estimated
12:18AM -17.6991 168.3198 117° Southeast  Level FlightAware Approximate
12:19AM -17.6993 168.3198 117° Southeast  Level Estimated
12:20AM -17.6991 168.3198 117° Southeast  Level FlightAware Approximate
12:21AM -17.6993 168.3198 117° Southeast  Level Estimated
12:22AM -17.6991 168.3198 117° Southeast  Level FlightAware Approximate
12:23AM -17.6993 168.3198 117° Southeast  Level Estimated
12:24AM -17.6991 168.3198 117° Southeast  Level FlightAware Approximate
12:25AM -17.6993 168.3198 117° Southeast  Level Estimated
12:26AM -17.6991 168.3198 117° Southeast  Level FlightAware Approximate
12:27AM -17.6993 168.3198 117° Southeast  Level Estimated
12:28AM -17.6991 168.3198 117° Southeast  Level FlightAware Approximate